Weslaco Annex Farm's Hourly Summary for Wednesday, March 15, 2017
Hour Temp
(f)
RH
(%)
Solar Rad.
(MJ/m2)
Rainfall
(in)
Wind
(mph)
3/15/2017 12:00 AM 60 84 0 0 1.82
3/15/2017 1:00 AM 60 83 0 0 2.34
3/15/2017 2:00 AM 60 86 0 0 2.39
3/15/2017 3:00 AM 60 88 0 0 2
3/15/2017 4:00 AM 62 87 0 0 2.6
3/15/2017 5:00 AM 62 86 0 0 2.84
3/15/2017 6:00 AM 63 85 0 0 3.03
3/15/2017 7:00 AM 64 85 0.01 0 3.07
3/15/2017 8:00 AM 66 81 0.16 0 3.59
3/15/2017 9:00 AM 70 76 0.4 0 4.44
3/15/2017 10:00 AM 73 73 0.69 0 5.31
3/15/2017 11:00 AM 75 72 0.59 0 4.85
3/15/2017 12:00 PM 78 66 0.98 0 4.87
3/15/2017 1:00 PM 79 63 1.02 0 5.02
3/15/2017 2:00 PM 79 62 0.99 0 5.22
3/15/2017 3:00 PM 79 62 0.77 0 4.89
3/15/2017 4:00 PM 79 63 0.67 0 5.33
3/15/2017 5:00 PM 77 64 0.48 0 5.62
3/15/2017 6:00 PM 76 67 0.27 0 5.17
3/15/2017 7:00 PM 72 73 0.03 0 4.63
3/15/2017 8:00 PM 70 79 0 0 2.82
3/15/2017 9:00 PM 68 82 0 0 2.63
3/15/2017 10:00 PM 67 85 0 0 2.28
3/15/2017 11:00 PM 67 87 0 0 2.54
Data Summary 69 76 7.06 0.00 3.72